createdAt,value
2022-09-23T00:01:35.948Z,101183.11
2022-09-23T00:04:04.674Z,101187.52
2022-09-23T00:06:33.271Z,101189.61
2022-09-23T00:09:01.971Z,101187.46
2022-09-23T00:11:30.849Z,101186.02
2022-09-23T00:14:01.255Z,101185.69
2022-09-23T00:16:34.927Z,101182.23
2022-09-23T00:19:04.768Z,101179.45
2022-09-23T00:21:33.454Z,101178.08
2022-09-23T00:24:02.772Z,101177.98
2022-09-23T00:26:31.418Z,101173.52
2022-09-23T00:29:00.179Z,101172.88
2022-09-23T00:31:28.964Z,101171.45
2022-09-23T00:34:02.085Z,101168.49
2022-09-23T00:36:31.711Z,101169.59
2022-09-23T00:39:00.364Z,101168.42
2022-09-23T00:41:29.154Z,101168.57
2022-09-23T00:44:00.595Z,101166.17
2022-09-23T00:46:35.210Z,101166.85
2022-09-23T00:49:16.093Z,101169.80
2022-09-23T00:51:55.526Z,101174.55
2022-09-23T00:54:27.776Z,101172.12
2022-09-23T00:57:00.003Z,101175.50
2022-09-23T00:59:29.399Z,101175.36
2022-09-23T01:02:00.601Z,101179.39
2022-09-23T01:04:30.888Z,101177.95
2022-09-23T01:06:59.542Z,101178.07
2022-09-23T01:09:29.256Z,101182.83
2022-09-23T01:12:11.080Z,101182.52
2022-09-23T01:14:55.706Z,101180.79
2022-09-23T01:17:37.258Z,101180.48
2022-09-23T01:20:39.336Z,101182.09
2022-09-23T01:23:22.702Z,101176.21
2022-09-23T01:26:09.449Z,101177.24
2022-09-23T01:29:17.918Z,101182.73
2022-09-23T01:31:56.002Z,101183.52
2022-09-23T01:34:45.167Z,101186.61
2022-09-23T01:37:29.019Z,101183.89
2022-09-23T01:40:37.635Z,101183.73
2022-09-23T01:43:15.152Z,101184.70
2022-09-23T01:45:47.685Z,101186.39
2022-09-23T01:48:43.792Z,101187.91
2022-09-23T01:51:33.132Z,101189.13
2022-09-23T01:54:26.651Z,101190.22
2022-09-23T01:57:32.123Z,101190.53
2022-09-23T02:00:13.826Z,101192.95
2022-09-23T02:03:28.048Z,101193.83
2022-09-23T02:06:23.926Z,101197.11
2022-09-23T02:09:02.398Z,101198.73
2022-09-23T02:11:36.541Z,101198.05
2022-09-23T02:14:30.761Z,101193.09
2022-09-23T02:17:09.767Z,101198.64
2022-09-23T02:19:55.430Z,101200.92
2022-09-23T02:22:41.363Z,101200.27
2022-09-23T02:25:12.672Z,101196.73
2022-09-23T02:27:52.720Z,101201.45
2022-09-23T02:30:27.451Z,101206.02
2022-09-23T02:33:08.821Z,101203.64
2022-09-23T02:35:45.576Z,101203.65
2022-09-23T02:38:29.554Z,101206.31
2022-09-23T02:41:05.448Z,101205.03
2022-09-23T02:43:52.146Z,101208.46
2022-09-23T02:46:22.093Z,101206.33
2022-09-23T02:49:04.374Z,101205.63
2022-09-23T02:51:37.902Z,101205.32
2022-09-23T02:54:11.109Z,101201.34
2022-09-23T02:56:40.292Z,101198.33
2022-09-23T02:59:10.768Z,101199.23
2022-09-23T03:02:28.249Z,101197.91
2022-09-23T03:05:04.062Z,101199.09
2022-09-23T03:08:28.197Z,101198.35
2022-09-23T03:11:07.148Z,101202.11
2022-09-23T03:14:17.737Z,101202.89
2022-09-23T03:17:12.659Z,101202.63
2022-09-23T03:19:52.354Z,101205.34
2022-09-23T03:22:47.536Z,101203.31
2022-09-23T03:25:21.715Z,101206.71
2022-09-23T03:27:50.530Z,101208.17
2022-09-23T03:30:19.329Z,101208.17
2022-09-23T03:32:49.505Z,101208.08
2022-09-23T03:35:18.267Z,101207.27
2022-09-23T03:38:17.163Z,101209.57
2022-09-23T03:40:51.118Z,101207.59
2022-09-23T03:43:20.241Z,101205.19
2022-09-23T03:45:48.945Z,101204.25
2022-09-23T03:48:17.555Z,101201.92
2022-09-23T03:50:46.152Z,101200.58
2022-09-23T03:53:15.065Z,101198.91
2022-09-23T03:55:43.821Z,101203.25
2022-09-23T03:58:12.468Z,101202.13
2022-09-23T04:00:41.212Z,101205.02
2022-09-23T04:03:11.970Z,101200.36
2022-09-23T04:05:43.673Z,101204.63
2022-09-23T04:08:12.351Z,101203.29
2022-09-23T04:10:42.497Z,101204.41
2022-09-23T04:13:11.130Z,101201.55
2022-09-23T04:15:41.182Z,101199.72
2022-09-23T04:18:09.929Z,101200.33
2022-09-23T04:20:39.849Z,101204.90
2022-09-23T04:23:08.475Z,101203.24
2022-09-23T04:25:45.238Z,101204.38
2022-09-23T04:28:14.156Z,101200.72
2022-09-23T04:30:44.038Z,101202.61
2022-09-23T04:33:14.084Z,101201.23
2022-09-23T04:35:43.723Z,101202.42
2022-09-23T04:38:12.942Z,101206.64
2022-09-23T04:40:41.614Z,101203.36
2022-09-23T04:43:13.555Z,101207.13
2022-09-23T04:45:45.797Z,101204.57
2022-09-23T04:48:14.413Z,101209.27
2022-09-23T04:50:42.983Z,101209.42
2022-09-23T04:53:11.545Z,101208.89
2022-09-23T04:55:40.186Z,101206.06
2022-09-23T04:58:10.262Z,101205.75
2022-09-23T05:00:38.969Z,101207.71
2022-09-23T05:03:07.714Z,101210.73
2022-09-23T05:05:36.387Z,101215.85
2022-09-23T05:08:05.026Z,101215.48
2022-09-23T05:10:33.777Z,101214.31
2022-09-23T05:13:02.356Z,101217.39
2022-09-23T05:15:31.053Z,101215.69
2022-09-23T05:17:59.747Z,101214.63
2022-09-23T05:20:28.928Z,101217.71
2022-09-23T05:22:57.522Z,101219.39
2022-09-23T05:25:26.123Z,101218.59
2022-09-23T05:27:54.748Z,101219.02
2022-09-23T05:30:23.456Z,101218.17
2022-09-23T05:32:52.176Z,101220.43
2022-09-23T05:35:20.751Z,101199.99
2022-09-23T05:37:49.348Z,101222.20
2022-09-23T05:40:18.061Z,101222.84
2022-09-23T05:42:46.783Z,101222.05
2022-09-23T05:45:15.497Z,101221.59
2022-09-23T05:47:47.021Z,101221.85
2022-09-23T05:50:15.890Z,101223.26
2022-09-23T05:52:44.582Z,101225.20
2022-09-23T05:55:13.242Z,101227.26
2022-09-23T05:57:41.875Z,101222.73
2022-09-23T06:00:11.677Z,101224.47
2022-09-23T06:02:43.316Z,101221.89
2022-09-23T06:05:12.475Z,101222.94
2022-09-23T06:07:41.103Z,101221.52
2022-09-23T06:10:09.965Z,101219.02
2022-09-23T06:12:38.569Z,101220.45
2022-09-23T06:15:08.350Z,101214.94
2022-09-23T06:17:37.009Z,101220.13
2022-09-23T06:20:06.121Z,101217.80
2022-09-23T06:22:39.562Z,101222.52
2022-09-23T06:25:09.639Z,101223.38
2022-09-23T06:27:38.360Z,101220.44
2022-09-23T06:30:08.609Z,101223.54
2022-09-23T06:32:37.302Z,101226.98
2022-09-23T06:35:14.363Z,101222.97
2022-09-23T06:37:48.554Z,101219.74
2022-09-23T06:40:18.023Z,101222.38
2022-09-23T06:42:52.078Z,101223.66
2022-09-23T06:45:21.152Z,101220.33
2022-09-23T06:47:58.155Z,101224.10
2022-09-23T06:50:28.283Z,101227.87
2022-09-23T06:52:58.642Z,101229.25
2022-09-23T06:55:28.075Z,101229.50
2022-09-23T06:57:59.039Z,101234.96
2022-09-23T07:00:27.950Z,101230.55
2022-09-23T07:02:57.323Z,101234.14
2022-09-23T07:05:26.043Z,101234.27
2022-09-23T07:07:54.814Z,101233.11
2022-09-23T07:10:23.435Z,101232.54
2022-09-23T07:12:52.587Z,101234.02
2022-09-23T07:15:21.611Z,101233.40
2022-09-23T07:17:50.165Z,101232.19
2022-09-23T07:20:18.900Z,101237.19
2022-09-23T07:22:53.617Z,101233.68
2022-09-23T07:25:23.312Z,101234.42
2022-09-23T07:27:51.978Z,101237.71
2022-09-23T07:30:25.156Z,101235.89
2022-09-23T07:32:54.189Z,101240.45
2022-09-23T07:35:22.970Z,101241.91
2022-09-23T07:37:51.633Z,101243.02
2022-09-23T07:40:20.511Z,101238.18
2022-09-23T07:42:49.524Z,101237.85
2022-09-23T07:45:18.503Z,101234.19
2022-09-23T07:47:47.181Z,101239.32
2022-09-23T07:50:15.814Z,101234.92
2022-09-23T07:52:44.398Z,101232.98
2022-09-23T07:55:18.806Z,101225.52
2022-09-23T07:57:49.577Z,101223.95
2022-09-23T08:00:18.924Z,101220.13
2022-09-23T08:02:52.999Z,101221.39
2022-09-23T08:05:22.887Z,101217.35
2022-09-23T08:07:51.533Z,101213.60
2022-09-23T08:10:21.086Z,101211.69
2022-09-23T08:12:49.719Z,101207.54
2022-09-23T08:15:18.416Z,101211.57
2022-09-23T08:17:46.967Z,101212.84
2022-09-23T08:20:35.649Z,101206.06
2022-09-23T08:23:04.346Z,101204.20
2022-09-23T08:25:34.777Z,101207.88
2022-09-23T08:28:03.526Z,101207.21
2022-09-23T08:30:32.214Z,101204.80
2022-09-23T08:33:01.255Z,101208.83
2022-09-23T08:35:30.006Z,101204.63
2022-09-23T08:37:58.672Z,101207.00
2022-09-23T08:40:27.835Z,101205.89
2022-09-23T08:42:57.045Z,101206.27
2022-09-23T08:45:28.733Z,101201.83
2022-09-23T08:48:16.000Z,101201.65
2022-09-23T08:51:01.978Z,101203.74
2022-09-23T08:53:36.220Z,101201.29
2022-09-23T08:56:23.826Z,101201.85
2022-09-23T08:59:41.298Z,101195.57
2022-09-23T09:02:21.987Z,101192.03
2022-09-23T09:05:00.166Z,101192.45
2022-09-23T09:07:37.355Z,101190.73
2022-09-23T09:10:42.018Z,101188.02
2022-09-23T09:13:36.255Z,101190.21
2022-09-23T09:16:41.857Z,101186.35
2022-09-23T09:19:31.454Z,101184.77
2022-09-23T09:22:01.697Z,101182.76
2022-09-23T09:24:35.681Z,101177.15
2022-09-23T09:27:18.115Z,101179.35
2022-09-23T09:29:54.336Z,101185.05
2022-09-23T09:32:47.594Z,101190.48
2022-09-23T09:35:34.545Z,101185.98
2022-09-23T09:38:05.898Z,101189.99
2022-09-23T09:40:35.323Z,101185.44
2022-09-23T09:43:04.959Z,101188.50
2022-09-23T09:46:13.488Z,101182.28
2022-09-23T09:49:39.542Z,101187.06
2022-09-23T09:52:22.546Z,101187.59
2022-09-23T09:54:52.120Z,101181.98
2022-09-23T09:57:38.264Z,101193.43
2022-09-23T10:00:21.939Z,101195.61
2022-09-23T10:03:01.906Z,101194.83
2022-09-23T10:05:57.908Z,101193.05
2022-09-23T10:08:37.208Z,101191.27
2022-09-23T10:11:17.393Z,101197.08
2022-09-23T10:14:11.121Z,101187.52
2022-09-23T10:16:42.374Z,101190.45
2022-09-23T10:19:29.704Z,101189.90
2022-09-23T10:22:08.658Z,101183.73
2022-09-23T10:24:37.330Z,101183.55
2022-09-23T10:27:09.911Z,101182.27
2022-09-23T10:29:50.948Z,101172.89
2022-09-23T10:32:31.542Z,101170.05
2022-09-23T10:35:09.182Z,101167.23
2022-09-23T10:37:51.800Z,101162.56
2022-09-23T10:40:59.029Z,101164.27
2022-09-23T10:44:11.488Z,101162.08
2022-09-23T10:46:49.551Z,101165.55
2022-09-23T10:49:33.141Z,101156.92
2022-09-23T10:52:44.369Z,101156.00
2022-09-23T10:55:50.915Z,101151.83
2022-09-23T10:58:43.596Z,101147.20
2022-09-23T11:01:39.857Z,101156.47
2022-09-23T11:04:32.598Z,101149.17
2022-09-23T11:07:37.433Z,101147.49
2022-09-23T11:10:53.247Z,101140.86
2022-09-23T11:13:40.318Z,101142.52
2022-09-23T11:16:39.227Z,101135.04
2022-09-23T11:20:05.475Z,101134.63
2022-09-23T11:23:10.706Z,101127.72
2022-09-23T11:26:12.637Z,101127.73
2022-09-23T11:29:34.114Z,101126.55
2022-09-23T11:32:48.365Z,101124.66
2022-09-23T11:35:41.878Z,101121.21
2022-09-23T11:38:46.331Z,101115.64
2022-09-23T11:41:37.510Z,101109.08
2022-09-23T11:44:20.954Z,101114.98
2022-09-23T11:47:08.450Z,101117.09
2022-09-23T11:49:49.007Z,101120.14
2022-09-23T11:52:25.070Z,101116.85
2022-09-23T11:55:21.128Z,101119.73
2022-09-23T11:58:03.546Z,101114.55
2022-09-23T12:00:40.059Z,101117.34
2022-09-23T12:03:44.415Z,101121.59
2022-09-23T12:06:37.241Z,101116.48
2022-09-23T12:09:35.732Z,101114.64
2022-09-23T12:12:56.167Z,101113.13
2022-09-23T12:16:05.117Z,101109.63
2022-09-23T12:18:56.156Z,101108.83
2022-09-23T12:21:56.824Z,101100.30
2022-09-23T12:24:37.831Z,101099.76
2022-09-23T12:27:24.136Z,101098.54
2022-09-23T12:30:01.702Z,101094.63
2022-09-23T12:32:32.337Z,101092.87
2022-09-23T12:35:01.609Z,101095.27
2022-09-23T12:37:38.856Z,101088.54
2022-09-23T12:40:39.330Z,101081.81
2022-09-23T12:43:36.350Z,101073.91
2022-09-23T12:46:27.856Z,101074.45
2022-09-23T12:48:58.067Z,101076.08
2022-09-23T12:51:37.273Z,101075.19
2022-09-23T12:54:06.066Z,101072.52
2022-09-23T12:56:34.812Z,101074.30
2022-09-23T12:59:27.498Z,101076.34
2022-09-23T13:01:57.451Z,101074.23
2022-09-23T13:04:49.593Z,101075.85
2022-09-23T13:07:31.242Z,101073.14
2022-09-23T13:10:33.115Z,101072.72
2022-09-23T13:13:02.563Z,101070.69
2022-09-23T13:15:36.900Z,101071.46
2022-09-23T13:18:20.701Z,101067.50
2022-09-23T13:20:51.918Z,101063.20
2022-09-23T13:23:31.513Z,101065.50
2022-09-23T13:26:09.561Z,101065.17
2022-09-23T13:28:58.767Z,101052.20
2022-09-23T13:31:27.576Z,101047.45
2022-09-23T13:34:04.901Z,101048.05
2022-09-23T13:36:45.725Z,101044.26
2022-09-23T13:39:26.010Z,101040.21
2022-09-23T13:42:05.109Z,101048.95
2022-09-23T13:44:33.825Z,101062.06
2022-09-23T13:47:03.519Z,101064.78
2022-09-23T13:49:37.331Z,101064.24
2022-09-23T13:52:07.104Z,101064.21
2022-09-23T13:54:50.206Z,101064.64
2022-09-23T13:57:27.996Z,101068.10
2022-09-23T14:00:25.982Z,101071.94
2022-09-23T14:02:54.583Z,101066.98
2022-09-23T14:05:27.454Z,101069.44
2022-09-23T14:07:56.657Z,101071.77
2022-09-23T14:10:28.014Z,101074.15
2022-09-23T14:12:57.177Z,101078.20
2022-09-23T14:15:26.670Z,101077.23
2022-09-23T14:18:03.571Z,101082.91
2022-09-23T14:20:32.526Z,101084.20
2022-09-23T14:23:14.952Z,101086.09
2022-09-23T14:25:45.793Z,101086.89
2022-09-23T14:28:20.876Z,101085.55
2022-09-23T14:30:53.214Z,101087.14
2022-09-23T14:33:33.660Z,101094.00
2022-09-23T14:37:23.180Z,101095.30
2022-09-23T14:39:57.081Z,101095.54
2022-09-23T14:42:28.083Z,101095.27
2022-09-23T14:44:56.739Z,101090.88
2022-09-23T14:47:25.959Z,101086.59
2022-09-23T14:50:12.851Z,101081.39
2022-09-23T14:52:52.223Z,101080.95
2022-09-23T14:55:21.014Z,101078.54
2022-09-23T14:58:05.021Z,101079.86
2022-09-23T15:00:38.922Z,101084.64
2022-09-23T15:03:17.457Z,101087.06
2022-09-23T15:05:49.193Z,101085.45
2022-09-23T15:08:26.473Z,101083.99
2022-09-23T15:10:56.042Z,101085.75
2022-09-23T15:13:30.184Z,101087.98
2022-09-23T15:16:04.142Z,101088.90
2022-09-23T15:18:36.771Z,101087.92
2022-09-23T15:21:09.677Z,101085.02
2022-09-23T15:23:49.199Z,101082.55
2022-09-23T15:26:24.993Z,101084.12
2022-09-23T15:28:58.516Z,101080.10
2022-09-23T15:31:27.405Z,101080.11
2022-09-23T15:33:56.693Z,101081.84
2022-09-23T15:36:30.266Z,101081.02
2022-09-23T15:39:11.024Z,101085.56
2022-09-23T15:41:39.906Z,101091.83
2022-09-23T15:44:19.157Z,101093.73
2022-09-23T15:46:52.090Z,101095.79
2022-09-23T15:49:34.405Z,101099.84
2022-09-23T15:52:05.699Z,101102.23
2022-09-23T15:54:43.700Z,101106.32
2022-09-23T15:57:12.876Z,101114.09
2022-09-23T15:59:41.540Z,101118.08
2022-09-23T16:02:24.006Z,101119.97
2022-09-23T16:04:53.753Z,101124.99
2022-09-23T16:07:23.335Z,101125.92
2022-09-23T16:09:51.965Z,101127.92
2022-09-23T16:12:20.891Z,101131.68
2022-09-23T16:14:49.455Z,101132.88
2022-09-23T16:17:18.695Z,101128.79
2022-09-23T16:19:47.373Z,101126.20
2022-09-23T16:22:16.257Z,101122.76
2022-09-23T16:24:44.943Z,101122.04
2022-09-23T16:27:18.773Z,101125.48
2022-09-23T16:29:47.329Z,101126.65
2022-09-23T16:32:20.164Z,101124.73
2022-09-23T16:34:50.833Z,101127.61
2022-09-23T16:37:21.541Z,101132.75
2022-09-23T16:39:50.173Z,101131.19
2022-09-23T16:42:18.753Z,101129.20
2022-09-23T16:44:47.722Z,101132.20
2022-09-23T16:47:16.574Z,101137.84
2022-09-23T16:49:45.155Z,101137.53
2022-09-23T16:52:13.838Z,101136.42
2022-09-23T16:54:43.640Z,101135.45
2022-09-23T16:57:13.498Z,101131.52
2022-09-23T17:00:00.526Z,101137.64
2022-09-23T17:02:47.638Z,101141.05
2022-09-23T17:05:17.237Z,101140.21
2022-09-23T17:07:47.031Z,101145.42
2022-09-23T17:10:17.430Z,101143.27
2022-09-23T17:12:46.008Z,101144.14
2022-09-23T17:15:14.598Z,101146.05
2022-09-23T17:17:43.318Z,101145.40
2022-09-23T17:20:14.492Z,101147.97
2022-09-23T17:22:43.289Z,101154.36
2022-09-23T17:25:11.844Z,101154.31
2022-09-23T17:27:40.572Z,101159.34
2022-09-23T17:30:10.566Z,101160.05
2022-09-23T17:32:39.252Z,101163.77
2022-09-23T17:35:10.135Z,101168.38
2022-09-23T17:37:38.748Z,101173.37
2022-09-23T17:40:08.229Z,101171.22
2022-09-23T17:42:43.671Z,101171.38
2022-09-23T17:45:13.183Z,101172.92
2022-09-23T17:47:42.477Z,101175.27
2022-09-23T17:50:11.044Z,101174.98
2022-09-23T17:52:39.665Z,101171.20
2022-09-23T17:55:09.086Z,101171.58
2022-09-23T17:57:37.659Z,101172.04
2022-09-23T18:00:07.758Z,101170.70
2022-09-23T18:02:40.448Z,101172.52
2022-09-23T18:05:09.648Z,101170.16
2022-09-23T18:07:38.276Z,101172.45
2022-09-23T18:10:09.084Z,101173.17
2022-09-23T18:12:37.740Z,101176.08
2022-09-23T18:15:06.629Z,101177.44
2022-09-23T18:17:35.245Z,101179.10
2022-09-23T18:20:04.478Z,101175.35
2022-09-23T18:22:33.282Z,101170.02
2022-09-23T18:25:13.072Z,101171.42
2022-09-23T18:27:51.525Z,101170.34
2022-09-23T18:30:20.238Z,101168.94
2022-09-23T18:32:49.264Z,101170.77
2022-09-23T18:35:18.653Z,101169.74
2022-09-23T18:37:47.262Z,101166.27
2022-09-23T18:40:16.050Z,101167.13
2022-09-23T18:42:44.703Z,101165.83
2022-09-23T18:45:13.613Z,101163.04
2022-09-23T18:48:00.530Z,101161.05
2022-09-23T18:50:43.587Z,101163.10
2022-09-23T18:53:12.457Z,101165.33
2022-09-23T18:55:41.136Z,101165.14
2022-09-23T18:58:10.746Z,101166.79
2022-09-23T19:00:39.815Z,101165.73
2022-09-23T19:03:08.592Z,101169.03
2022-09-23T19:05:37.287Z,101166.46
2022-09-23T19:08:05.863Z,101160.88
2022-09-23T19:10:34.496Z,101171.47
2022-09-23T19:13:03.084Z,101171.59
2022-09-23T19:15:33.298Z,101173.68
2022-09-23T19:18:01.893Z,101174.67
2022-09-23T19:20:30.588Z,101172.48
2022-09-23T19:22:59.211Z,101170.72
2022-09-23T19:25:27.851Z,101167.85
2022-09-23T19:27:57.176Z,101171.02
2022-09-23T19:30:25.944Z,101171.61
2022-09-23T19:32:54.587Z,101174.13
2022-09-23T19:35:23.454Z,101175.26
2022-09-23T19:37:52.446Z,101173.38
2022-09-23T19:40:21.321Z,101176.70
2022-09-23T19:42:55.461Z,101179.92
2022-09-23T19:45:24.143Z,101182.55
2022-09-23T19:47:56.966Z,101179.60
2022-09-23T19:50:25.632Z,101179.94
2022-09-23T19:52:54.232Z,101182.20
2022-09-23T19:55:23.018Z,101185.24
2022-09-23T19:57:51.687Z,101183.23
2022-09-23T20:00:20.566Z,101183.66
2022-09-23T20:02:49.319Z,101187.81
2022-09-23T20:05:20.251Z,101187.73
2022-09-23T20:07:49.126Z,101188.75
2022-09-23T20:10:18.571Z,101188.85
2022-09-23T20:12:47.298Z,101187.52
2022-09-23T20:15:17.493Z,101189.09
2022-09-23T20:17:46.167Z,101183.64
2022-09-23T20:20:16.085Z,101184.35
2022-09-23T20:22:44.684Z,101183.93
2022-09-23T20:25:13.876Z,101180.71
2022-09-23T20:27:42.625Z,101179.69
2022-09-23T20:30:12.166Z,101178.45
2022-09-23T20:32:44.464Z,101180.23
2022-09-23T20:35:13.857Z,101182.39
2022-09-23T20:37:52.748Z,101179.54
2022-09-23T20:40:25.572Z,101178.58
2022-09-23T20:42:54.756Z,101176.83
2022-09-23T20:45:23.356Z,101181.92
2022-09-23T20:47:52.004Z,101180.74
2022-09-23T20:50:20.700Z,101173.71
2022-09-23T20:52:49.334Z,101174.42
2022-09-23T20:55:18.449Z,101177.39
2022-09-23T20:57:49.056Z,101174.54
2022-09-23T21:00:18.703Z,101171.00
2022-09-23T21:02:47.528Z,101171.83
2022-09-23T21:05:18.160Z,101171.10
2022-09-23T21:07:47.414Z,101169.94
2022-09-23T21:10:16.297Z,101165.98
2022-09-23T21:12:50.679Z,101163.23
2022-09-23T21:15:19.279Z,101161.14
2022-09-23T21:17:47.857Z,101166.12
2022-09-23T21:20:16.783Z,101167.38
2022-09-23T21:22:45.468Z,101162.59
2022-09-23T21:25:27.291Z,101158.74
2022-09-23T21:27:58.722Z,101163.81
2022-09-23T21:30:27.380Z,101166.11
2022-09-23T21:32:56.043Z,101163.83
2022-09-23T21:35:24.578Z,101162.62
2022-09-23T21:37:53.152Z,101163.44
2022-09-23T21:40:39.887Z,101164.33
2022-09-23T21:43:08.570Z,101164.60
2022-09-23T21:45:37.169Z,101165.92
2022-09-23T21:48:05.865Z,101166.53
2022-09-23T21:50:37.442Z,101164.97
2022-09-23T21:53:06.851Z,101166.98
2022-09-23T21:55:35.466Z,101164.90
2022-09-23T21:58:05.093Z,101167.92
2022-09-23T22:00:33.812Z,101168.26
2022-09-23T22:03:02.393Z,101165.59
2022-09-23T22:05:30.998Z,101163.42
2022-09-23T22:07:59.648Z,101160.79
2022-09-23T22:10:28.357Z,101155.27
2022-09-23T22:12:57.090Z,101154.00
2022-09-23T22:15:26.013Z,101154.63
2022-09-23T22:17:54.992Z,101160.25
2022-09-23T22:20:23.865Z,101156.56
2022-09-23T22:22:53.467Z,101157.19
2022-09-23T22:25:22.078Z,101161.05
2022-09-23T22:28:09.435Z,101161.98
2022-09-23T22:30:58.245Z,101164.93
2022-09-23T22:33:26.854Z,101161.46
2022-09-23T22:36:03.964Z,101164.44
2022-09-23T22:38:33.211Z,101162.98
2022-09-23T22:41:01.961Z,101163.09
2022-09-23T22:43:33.859Z,101165.64
2022-09-23T22:46:02.621Z,101168.21
2022-09-23T22:48:31.297Z,101171.31
2022-09-23T22:51:01.402Z,101172.29
2022-09-23T22:53:30.075Z,101170.94
2022-09-23T22:56:01.485Z,101172.83
2022-09-23T22:58:32.621Z,101167.83
2022-09-23T23:01:02.594Z,101163.10
2022-09-23T23:03:33.659Z,101162.59
2022-09-23T23:06:04.547Z,101162.42
2022-09-23T23:08:33.609Z,101161.73
2022-09-23T23:11:11.580Z,101165.45
2022-09-23T23:13:43.863Z,101160.00
2022-09-23T23:16:13.431Z,101155.83
2022-09-23T23:18:45.799Z,101160.44
2022-09-23T23:21:19.651Z,101162.13
2022-09-23T23:23:53.416Z,101161.09
2022-09-23T23:26:26.177Z,101158.10
2022-09-23T23:28:57.056Z,101152.11
2022-09-23T23:31:28.985Z,101150.50
2022-09-23T23:33:57.735Z,101150.75
2022-09-23T23:36:26.357Z,101154.60
2022-09-23T23:38:54.980Z,101149.11
2022-09-23T23:41:23.674Z,101149.42
2022-09-23T23:44:00.526Z,101155.13
2022-09-23T23:46:32.204Z,101155.59
2022-09-23T23:49:01.312Z,101152.67
2022-09-23T23:51:30.198Z,101157.86
2022-09-23T23:54:00.387Z,101150.73
2022-09-23T23:56:30.954Z,101148.96
2022-09-23T23:59:05.199Z,101151.77
